sensor_id;sensor_type;location;lat;lon;timestamp;temperature;humidity
27072;DHT22;14613;46.308;25.288;2022-11-20T00:00:49;9.50;87.80
27072;DHT22;14613;46.308;25.288;2022-11-20T00:03:15;9.50;88.00
27072;DHT22;14613;46.308;25.288;2022-11-20T00:05:41;9.50;88.00
27072;DHT22;14613;46.308;25.288;2022-11-20T00:08:07;9.50;88.00
27072;DHT22;14613;46.308;25.288;2022-11-20T00:10:32;9.50;87.90
27072;DHT22;14613;46.308;25.288;2022-11-20T00:13:01;9.50;88.00
27072;DHT22;14613;46.308;25.288;2022-11-20T00:15:26;9.50;88.00
27072;DHT22;14613;46.308;25.288;2022-11-20T00:17:52;9.60;88.10
27072;DHT22;14613;46.308;25.288;2022-11-20T00:20:18;9.60;87.90
27072;DHT22;14613;46.308;25.288;2022-11-20T00:22:44;9.70;87.70
27072;DHT22;14613;46.308;25.288;2022-11-20T00:25:09;9.70;87.60
27072;DHT22;14613;46.308;25.288;2022-11-20T00:27:35;9.70;87.50
27072;DHT22;14613;46.308;25.288;2022-11-20T00:30:01;9.70;87.30
27072;DHT22;14613;46.308;25.288;2022-11-20T00:32:27;9.80;87.20
27072;DHT22;14613;46.308;25.288;2022-11-20T00:34:52;9.80;87.10
27072;DHT22;14613;46.308;25.288;2022-11-20T00:37:18;9.80;86.90
27072;DHT22;14613;46.308;25.288;2022-11-20T00:39:44;9.80;86.80
27072;DHT22;14613;46.308;25.288;2022-11-20T00:42:09;9.90;86.80
27072;DHT22;14613;46.308;25.288;2022-11-20T00:44:35;9.90;86.70
27072;DHT22;14613;46.308;25.288;2022-11-20T00:47:01;9.90;86.70
27072;DHT22;14613;46.308;25.288;2022-11-20T00:49:26;9.90;86.60
27072;DHT22;14613;46.308;25.288;2022-11-20T00:51:52;9.90;86.50
27072;DHT22;14613;46.308;25.288;2022-11-20T00:54:18;9.90;86.50
27072;DHT22;14613;46.308;25.288;2022-11-20T00:56:43;9.90;86.70
27072;DHT22;14613;46.308;25.288;2022-11-20T00:59:10;9.80;86.90
27072;DHT22;14613;46.308;25.288;2022-11-20T01:01:37;9.80;86.90
27072;DHT22;14613;46.308;25.288;2022-11-20T01:04:03;9.90;87.00
27072;DHT22;14613;46.308;25.288;2022-11-20T01:06:34;9.90;86.90
27072;DHT22;14613;46.308;25.288;2022-11-20T01:09:09;9.90;86.80
27072;DHT22;14613;46.308;25.288;2022-11-20T01:11:38;9.90;86.80
27072;DHT22;14613;46.308;25.288;2022-11-20T01:14:06;9.90;86.60
27072;DHT22;14613;46.308;25.288;2022-11-20T01:16:44;10.00;86.70
27072;DHT22;14613;46.308;25.288;2022-11-20T01:19:18;9.90;86.60
27072;DHT22;14613;46.308;25.288;2022-11-20T01:21:45;10.00;86.60
27072;DHT22;14613;46.308;25.288;2022-11-20T01:24:14;10.00;86.60
27072;DHT22;14613;46.308;25.288;2022-11-20T01:26:41;10.00;86.70
27072;DHT22;14613;46.308;25.288;2022-11-20T01:29:13;10.00;86.60
27072;DHT22;14613;46.308;25.288;2022-11-20T01:31:39;10.00;86.80
27072;DHT22;14613;46.308;25.288;2022-11-20T01:34:14;9.90;86.90
27072;DHT22;14613;46.308;25.288;2022-11-20T01:36:41;9.90;87.30
27072;DHT22;14613;46.308;25.288;2022-11-20T01:39:17;9.90;87.50
27072;DHT22;14613;46.308;25.288;2022-11-20T01:41:46;9.90;87.70
27072;DHT22;14613;46.308;25.288;2022-11-20T01:44:57;9.90;87.70
27072;DHT22;14613;46.308;25.288;2022-11-20T01:47:31;10.00;87.70
27072;DHT22;14613;46.308;25.288;2022-11-20T01:50:19;10.00;87.70
27072;DHT22;14613;46.308;25.288;2022-11-20T01:53:02;9.90;87.80
27072;DHT22;14613;46.308;25.288;2022-11-20T01:55:32;10.00;88.00
27072;DHT22;14613;46.308;25.288;2022-11-20T01:58:00;10.00;88.00
27072;DHT22;14613;46.308;25.288;2022-11-20T02:00:27;10.00;88.00
27072;DHT22;14613;46.308;25.288;2022-11-20T02:03:02;10.00;88.00
27072;DHT22;14613;46.308;25.288;2022-11-20T02:05:34;10.00;88.10
27072;DHT22;14613;46.308;25.288;2022-11-20T02:08:02;10.00;88.10
27072;DHT22;14613;46.308;25.288;2022-11-20T02:10:29;10.10;88.20
27072;DHT22;14613;46.308;25.288;2022-11-20T02:12:55;10.10;88.10
27072;DHT22;14613;46.308;25.288;2022-11-20T02:15:53;10.10;88.20
27072;DHT22;14613;46.308;25.288;2022-11-20T02:18:20;10.10;88.10
27072;DHT22;14613;46.308;25.288;2022-11-20T02:20:49;10.20;88.20
27072;DHT22;14613;46.308;25.288;2022-11-20T02:23:38;10.20;88.20
27072;DHT22;14613;46.308;25.288;2022-11-20T02:26:08;10.20;88.10
27072;DHT22;14613;46.308;25.288;2022-11-20T02:28:35;10.20;88.00
27072;DHT22;14613;46.308;25.288;2022-11-20T02:31:01;10.20;87.90
27072;DHT22;14613;46.308;25.288;2022-11-20T02:33:27;10.30;88.00
27072;DHT22;14613;46.308;25.288;2022-11-20T02:35:52;10.30;88.00
27072;DHT22;14613;46.308;25.288;2022-11-20T02:38:18;10.30;88.00
27072;DHT22;14613;46.308;25.288;2022-11-20T02:40:44;10.30;88.10
27072;DHT22;14613;46.308;25.288;2022-11-20T02:43:10;10.20;88.10
27072;DHT22;14613;46.308;25.288;2022-11-20T02:45:36;10.20;88.40
27072;DHT22;14613;46.308;25.288;2022-11-20T02:48:02;10.10;88.60
27072;DHT22;14613;46.308;25.288;2022-11-20T02:50:28;10.10;88.90
27072;DHT22;14613;46.308;25.288;2022-11-20T02:52:54;10.10;89.00
27072;DHT22;14613;46.308;25.288;2022-11-20T02:55:19;10.10;88.90
27072;DHT22;14613;46.308;25.288;2022-11-20T02:57:45;10.20;88.90
27072;DHT22;14613;46.308;25.288;2022-11-20T03:00:11;10.20;88.70
27072;DHT22;14613;46.308;25.288;2022-11-20T03:02:37;10.30;88.60
27072;DHT22;14613;46.308;25.288;2022-11-20T03:05:03;10.30;88.40
27072;DHT22;14613;46.308;25.288;2022-11-20T03:07:29;10.20;88.30
27072;DHT22;14613;46.308;25.288;2022-11-20T03:09:55;10.30;88.30
27072;DHT22;14613;46.308;25.288;2022-11-20T03:12:20;10.30;88.30
27072;DHT22;14613;46.308;25.288;2022-11-20T03:14:46;10.30;88.20
27072;DHT22;14613;46.308;25.288;2022-11-20T03:17:12;10.30;88.10
27072;DHT22;14613;46.308;25.288;2022-11-20T03:19:37;10.20;88.10
27072;DHT22;14613;46.308;25.288;2022-11-20T03:22:03;10.20;88.10
27072;DHT22;14613;46.308;25.288;2022-11-20T03:24:29;10.10;88.20
27072;DHT22;14613;46.308;25.288;2022-11-20T03:26:54;10.00;88.40
27072;DHT22;14613;46.308;25.288;2022-11-20T03:29:20;9.90;88.80
27072;DHT22;14613;46.308;25.288;2022-11-20T03:31:46;9.90;89.00
27072;DHT22;14613;46.308;25.288;2022-11-20T03:34:12;9.90;89.00
27072;DHT22;14613;46.308;25.288;2022-11-20T03:36:39;9.90;89.00
27072;DHT22;14613;46.308;25.288;2022-11-20T03:39:05;10.00;89.00
27072;DHT22;14613;46.308;25.288;2022-11-20T03:41:35;10.00;88.90
27072;DHT22;14613;46.308;25.288;2022-11-20T03:44:02;10.00;88.80
27072;DHT22;14613;46.308;25.288;2022-11-20T03:46:29;10.10;88.70
27072;DHT22;14613;46.308;25.288;2022-11-20T03:48:55;10.10;88.70
27072;DHT22;14613;46.308;25.288;2022-11-20T03:51:26;10.10;88.60
27072;DHT22;14613;46.308;25.288;2022-11-20T03:53:55;10.10;88.70
27072;DHT22;14613;46.308;25.288;2022-11-20T03:56:35;10.10;88.60
27072;DHT22;14613;46.308;25.288;2022-11-20T03:59:00;10.00;88.40
27072;DHT22;14613;46.308;25.288;2022-11-20T04:01:34;10.10;88.40
27072;DHT22;14613;46.308;25.288;2022-11-20T04:04:00;10.10;88.30
27072;DHT22;14613;46.308;25.288;2022-11-20T04:06:29;10.10;89.00
27072;DHT22;14613;46.308;25.288;2022-11-20T04:08:56;10.10;88.20
27072;DHT22;14613;46.308;25.288;2022-11-20T04:11:24;10.10;88.00
27072;DHT22;14613;46.308;25.288;2022-11-20T04:13:53;10.10;88.00
27072;DHT22;14613;46.308;25.288;2022-11-20T04:16:20;10.10;88.00
27072;DHT22;14613;46.308;25.288;2022-11-20T04:18:46;10.10;88.00
27072;DHT22;14613;46.308;25.288;2022-11-20T04:21:12;10.10;88.00
27072;DHT22;14613;46.308;25.288;2022-11-20T04:23:38;10.10;88.00
27072;DHT22;14613;46.308;25.288;2022-11-20T04:26:09;10.10;87.90
27072;DHT22;14613;46.308;25.288;2022-11-20T04:28:35;10.20;88.00
27072;DHT22;14613;46.308;25.288;2022-11-20T04:31:06;10.10;87.80
27072;DHT22;14613;46.308;25.288;2022-11-20T04:33:33;10.10;87.70
27072;DHT22;14613;46.308;25.288;2022-11-20T04:36:07;10.10;87.70
27072;DHT22;14613;46.308;25.288;2022-11-20T04:38:35;10.10;87.70
27072;DHT22;14613;46.308;25.288;2022-11-20T04:41:03;10.00;87.70
27072;DHT22;14613;46.308;25.288;2022-11-20T04:43:29;9.90;87.80
27072;DHT22;14613;46.308;25.288;2022-11-20T04:45:56;9.80;88.00
27072;DHT22;14613;46.308;25.288;2022-11-20T04:48:23;9.70;88.30
27072;DHT22;14613;46.308;25.288;2022-11-20T04:50:49;9.70;88.40
27072;DHT22;14613;46.308;25.288;2022-11-20T04:53:15;9.60;88.60
27072;DHT22;14613;46.308;25.288;2022-11-20T04:55:40;9.60;88.70
27072;DHT22;14613;46.308;25.288;2022-11-20T04:58:06;9.50;88.90
27072;DHT22;14613;46.308;25.288;2022-11-20T05:00:32;9.50;89.00
27072;DHT22;14613;46.308;25.288;2022-11-20T05:02:58;9.40;88.90
27072;DHT22;14613;46.308;25.288;2022-11-20T05:05:23;9.30;89.20
27072;DHT22;14613;46.308;25.288;2022-11-20T05:07:49;9.30;89.60
27072;DHT22;14613;46.308;25.288;2022-11-20T05:10:15;9.20;89.60
27072;DHT22;14613;46.308;25.288;2022-11-20T05:12:41;9.30;89.60
27072;DHT22;14613;46.308;25.288;2022-11-20T05:15:07;9.30;89.50
27072;DHT22;14613;46.308;25.288;2022-11-20T05:17:33;9.30;89.30
27072;DHT22;14613;46.308;25.288;2022-11-20T05:19:58;9.30;89.20
27072;DHT22;14613;46.308;25.288;2022-11-20T05:22:24;9.30;89.30
27072;DHT22;14613;46.308;25.288;2022-11-20T05:24:50;9.30;89.30
27072;DHT22;14613;46.308;25.288;2022-11-20T05:27:15;9.30;89.10
27072;DHT22;14613;46.308;25.288;2022-11-20T05:29:41;9.30;89.20
27072;DHT22;14613;46.308;25.288;2022-11-20T05:32:07;9.30;89.20
27072;DHT22;14613;46.308;25.288;2022-11-20T05:34:35;9.40;89.20
27072;DHT22;14613;46.308;25.288;2022-11-20T05:37:02;9.40;89.00
27072;DHT22;14613;46.308;25.288;2022-11-20T05:39:28;9.40;88.90
27072;DHT22;14613;46.308;25.288;2022-11-20T05:41:53;9.50;88.90
27072;DHT22;14613;46.308;25.288;2022-11-20T05:44:38;9.50;88.80
27072;DHT22;14613;46.308;25.288;2022-11-20T05:47:04;9.50;88.60
27072;DHT22;14613;46.308;25.288;2022-11-20T05:49:30;9.50;88.40
27072;DHT22;14613;46.308;25.288;2022-11-20T05:51:55;9.50;88.30
27072;DHT22;14613;46.308;25.288;2022-11-20T05:54:21;9.50;88.30
27072;DHT22;14613;46.308;25.288;2022-11-20T05:56:47;9.60;88.40
27072;DHT22;14613;46.308;25.288;2022-11-20T05:59:12;9.50;88.40
27072;DHT22;14613;46.308;25.288;2022-11-20T06:01:38;9.50;88.40
27072;DHT22;14613;46.308;25.288;2022-11-20T06:04:04;9.40;88.80
27072;DHT22;14613;46.308;25.288;2022-11-20T06:06:30;9.30;89.30
27072;DHT22;14613;46.308;25.288;2022-11-20T06:08:55;9.30;89.60
27072;DHT22;14613;46.308;25.288;2022-11-20T06:11:21;9.30;89.60
27072;DHT22;14613;46.308;25.288;2022-11-20T06:13:47;9.30;89.50
27072;DHT22;14613;46.308;25.288;2022-11-20T06:16:15;9.40;89.60
27072;DHT22;14613;46.308;25.288;2022-11-20T06:18:41;9.40;89.50
27072;DHT22;14613;46.308;25.288;2022-11-20T06:21:14;9.40;89.40
27072;DHT22;14613;46.308;25.288;2022-11-20T06:23:40;9.50;89.40
27072;DHT22;14613;46.308;25.288;2022-11-20T06:26:08;9.50;89.20
27072;DHT22;14613;46.308;25.288;2022-11-20T06:28:34;9.60;89.30
27072;DHT22;14613;46.308;25.288;2022-11-20T06:31:00;9.60;89.20
27072;DHT22;14613;46.308;25.288;2022-11-20T06:33:26;9.70;89.20
27072;DHT22;14613;46.308;25.288;2022-11-20T06:35:52;9.70;89.10
27072;DHT22;14613;46.308;25.288;2022-11-20T06:38:21;9.70;89.20
27072;DHT22;14613;46.308;25.288;2022-11-20T06:40:46;9.70;89.30
27072;DHT22;14613;46.308;25.288;2022-11-20T06:43:12;9.70;89.20
27072;DHT22;14613;46.308;25.288;2022-11-20T06:45:38;9.80;89.20
27072;DHT22;14613;46.308;25.288;2022-11-20T06:48:04;9.70;89.10
27072;DHT22;14613;46.308;25.288;2022-11-20T06:50:30;9.80;89.20
27072;DHT22;14613;46.308;25.288;2022-11-20T06:52:55;9.80;89.30
27072;DHT22;14613;46.308;25.288;2022-11-20T06:55:21;9.80;89.30
27072;DHT22;14613;46.308;25.288;2022-11-20T06:57:47;9.90;89.30
27072;DHT22;14613;46.308;25.288;2022-11-20T07:00:15;9.90;89.30
27072;DHT22;14613;46.308;25.288;2022-11-20T07:02:40;9.90;89.30
27072;DHT22;14613;46.308;25.288;2022-11-20T07:05:06;10.00;89.30
27072;DHT22;14613;46.308;25.288;2022-11-20T07:07:32;10.00;89.30
27072;DHT22;14613;46.308;25.288;2022-11-20T07:09:57;10.00;89.20
27072;DHT22;14613;46.308;25.288;2022-11-20T07:12:23;10.10;89.20
27072;DHT22;14613;46.308;25.288;2022-11-20T07:14:49;10.20;89.20
27072;DHT22;14613;46.308;25.288;2022-11-20T07:17:14;10.20;89.30
27072;DHT22;14613;46.308;25.288;2022-11-20T07:19:40;10.20;89.20
27072;DHT22;14613;46.308;25.288;2022-11-20T07:22:06;10.30;89.10
27072;DHT22;14613;46.308;25.288;2022-11-20T07:24:31;10.30;89.00
27072;DHT22;14613;46.308;25.288;2022-11-20T07:26:57;10.30;89.20
27072;DHT22;14613;46.308;25.288;2022-11-20T07:29:23;10.20;89.50
27072;DHT22;14613;46.308;25.288;2022-11-20T07:31:48;10.20;89.70
27072;DHT22;14613;46.308;25.288;2022-11-20T07:34:14;10.10;90.00
27072;DHT22;14613;46.308;25.288;2022-11-20T07:36:40;10.10;90.00
27072;DHT22;14613;46.308;25.288;2022-11-20T07:39:06;10.10;90.10
27072;DHT22;14613;46.308;25.288;2022-11-20T07:41:31;10.00;90.20
27072;DHT22;14613;46.308;25.288;2022-11-20T07:43:57;10.00;90.40
27072;DHT22;14613;46.308;25.288;2022-11-20T07:46:23;9.90;90.60
27072;DHT22;14613;46.308;25.288;2022-11-20T07:48:48;9.90;90.70
27072;DHT22;14613;46.308;25.288;2022-11-20T07:51:14;9.90;90.80
27072;DHT22;14613;46.308;25.288;2022-11-20T07:53:40;10.00;90.80
27072;DHT22;14613;46.308;25.288;2022-11-20T07:56:06;10.10;90.70
27072;DHT22;14613;46.308;25.288;2022-11-20T07:58:32;10.30;90.60
27072;DHT22;14613;46.308;25.288;2022-11-20T08:01:07;10.40;90.50
27072;DHT22;14613;46.308;25.288;2022-11-20T08:03:33;10.50;90.40
27072;DHT22;14613;46.308;25.288;2022-11-20T08:06:00;10.60;90.30
27072;DHT22;14613;46.308;25.288;2022-11-20T08:08:26;10.70;90.20
27072;DHT22;14613;46.308;25.288;2022-11-20T08:10:52;10.80;90.10
27072;DHT22;14613;46.308;25.288;2022-11-20T08:13:18;10.90;90.00
27072;DHT22;14613;46.308;25.288;2022-11-20T08:16:02;11.00;89.90
27072;DHT22;14613;46.308;25.288;2022-11-20T08:18:28;11.10;89.70
27072;DHT22;14613;46.308;25.288;2022-11-20T08:20:54;11.10;89.40
27072;DHT22;14613;46.308;25.288;2022-11-20T08:23:19;11.20;89.30
27072;DHT22;14613;46.308;25.288;2022-11-20T08:25:49;11.30;89.10
27072;DHT22;14613;46.308;25.288;2022-11-20T08:28:15;11.30;88.90
27072;DHT22;14613;46.308;25.288;2022-11-20T08:30:41;11.40;88.80
27072;DHT22;14613;46.308;25.288;2022-11-20T08:33:08;11.40;88.70
27072;DHT22;14613;46.308;25.288;2022-11-20T08:35:36;11.50;88.60
27072;DHT22;14613;46.308;25.288;2022-11-20T08:38:03;11.50;89.30
27072;DHT22;14613;46.308;25.288;2022-11-20T08:40:28;11.50;88.40
27072;DHT22;14613;46.308;25.288;2022-11-20T08:42:54;11.60;88.40
27072;DHT22;14613;46.308;25.288;2022-11-20T08:45:20;11.60;88.40
27072;DHT22;14613;46.308;25.288;2022-11-20T08:47:46;11.70;88.20
27072;DHT22;14613;46.308;25.288;2022-11-20T08:50:13;11.70;88.20
27072;DHT22;14613;46.308;25.288;2022-11-20T08:52:39;11.80;88.20
27072;DHT22;14613;46.308;25.288;2022-11-20T08:55:06;11.80;88.10
27072;DHT22;14613;46.308;25.288;2022-11-20T08:57:33;11.90;88.20
27072;DHT22;14613;46.308;25.288;2022-11-20T08:59:59;11.90;88.10
27072;DHT22;14613;46.308;25.288;2022-11-20T09:02:25;12.00;87.90
27072;DHT22;14613;46.308;25.288;2022-11-20T09:04:50;12.00;87.80
27072;DHT22;14613;46.308;25.288;2022-11-20T09:07:16;12.00;87.60
27072;DHT22;14613;46.308;25.288;2022-11-20T09:09:42;12.10;87.60
27072;DHT22;14613;46.308;25.288;2022-11-20T09:12:07;12.10;87.70
27072;DHT22;14613;46.308;25.288;2022-11-20T09:14:33;12.20;87.80
27072;DHT22;14613;46.308;25.288;2022-11-20T09:16:59;12.20;87.80
27072;DHT22;14613;46.308;25.288;2022-11-20T09:19:25;12.30;87.80
27072;DHT22;14613;46.308;25.288;2022-11-20T09:21:51;12.30;87.80
27072;DHT22;14613;46.308;25.288;2022-11-20T09:24:17;12.40;87.70
27072;DHT22;14613;46.308;25.288;2022-11-20T09:26:43;12.50;87.70
27072;DHT22;14613;46.308;25.288;2022-11-20T09:29:09;12.50;87.50
27072;DHT22;14613;46.308;25.288;2022-11-20T09:31:35;12.60;87.40
27072;DHT22;14613;46.308;25.288;2022-11-20T09:34:01;12.60;87.30
27072;DHT22;14613;46.308;25.288;2022-11-20T09:36:26;12.60;87.20
27072;DHT22;14613;46.308;25.288;2022-11-20T09:38:52;12.60;87.20
27072;DHT22;14613;46.308;25.288;2022-11-20T09:55:01;12.70;86.90
27072;DHT22;14613;46.308;25.288;2022-11-20T09:57:39;12.70;87.10
27072;DHT22;14613;46.308;25.288;2022-11-20T10:00:10;12.70;87.10
27072;DHT22;14613;46.308;25.288;2022-11-20T10:05:47;12.80;86.90
27072;DHT22;14613;46.308;25.288;2022-11-20T10:08:30;12.90;87.00
27072;DHT22;14613;46.308;25.288;2022-11-20T10:11:05;12.90;86.90
27072;DHT22;14613;46.308;25.288;2022-11-20T10:14:08;12.90;86.90
27072;DHT22;14613;46.308;25.288;2022-11-20T10:25:42;12.80;87.40
27072;DHT22;14613;46.308;25.288;2022-11-20T10:30:59;13.00;87.40
27072;DHT22;14613;46.308;25.288;2022-11-20T10:33:27;13.10;87.20
27072;DHT22;14613;46.308;25.288;2022-11-20T10:36:20;13.20;87.10
27072;DHT22;14613;46.308;25.288;2022-11-20T10:38:53;13.30;86.90
27072;DHT22;14613;46.308;25.288;2022-11-20T10:41:28;13.30;86.70
27072;DHT22;14613;46.308;25.288;2022-11-20T10:44:09;13.40;86.60
27072;DHT22;14613;46.308;25.288;2022-11-20T10:46:45;13.40;86.50
27072;DHT22;14613;46.308;25.288;2022-11-20T10:49:16;13.50;86.50
27072;DHT22;14613;46.308;25.288;2022-11-20T11:00:30;13.50;86.30
27072;DHT22;14613;46.308;25.288;2022-11-20T11:02:56;13.50;86.50
27072;DHT22;14613;46.308;25.288;2022-11-20T11:05:54;13.50;86.40
27072;DHT22;14613;46.308;25.288;2022-11-20T11:08:20;13.50;86.20
27072;DHT22;14613;46.308;25.288;2022-11-20T11:10:57;13.60;86.20
27072;DHT22;14613;46.308;25.288;2022-11-20T11:13:29;13.50;86.00
27072;DHT22;14613;46.308;25.288;2022-11-20T11:15:56;13.60;86.10
27072;DHT22;14613;46.308;25.288;2022-11-20T11:18:30;13.60;86.00
27072;DHT22;14613;46.308;25.288;2022-11-20T11:20:59;13.50;86.00
27072;DHT22;14613;46.308;25.288;2022-11-20T11:23:39;13.50;86.30
27072;DHT22;14613;46.308;25.288;2022-11-20T11:26:18;13.40;86.30
27072;DHT22;14613;46.308;25.288;2022-11-20T11:28:53;13.40;86.40
27072;DHT22;14613;46.308;25.288;2022-11-20T11:31:27;13.40;86.40
27072;DHT22;14613;46.308;25.288;2022-11-20T11:34:24;13.40;86.30
27072;DHT22;14613;46.308;25.288;2022-11-20T11:36:55;13.50;86.20
27072;DHT22;14613;46.308;25.288;2022-11-20T11:39:21;13.50;86.20
27072;DHT22;14613;46.308;25.288;2022-11-20T11:41:48;13.40;86.20
27072;DHT22;14613;46.308;25.288;2022-11-20T11:44:30;13.50;86.20
27072;DHT22;14613;46.308;25.288;2022-11-20T11:47:23;13.60;86.20
27072;DHT22;14613;46.308;25.288;2022-11-20T11:50:14;13.60;86.00
27072;DHT22;14613;46.308;25.288;2022-11-20T12:03:57;13.80;85.40
27072;DHT22;14613;46.308;25.288;2022-11-20T12:06:25;13.90;85.50
27072;DHT22;14613;46.308;25.288;2022-11-20T12:08:59;13.90;85.40
27072;DHT22;14613;46.308;25.288;2022-11-20T12:14:33;13.90;85.00
27072;DHT22;14613;46.308;25.288;2022-11-20T12:17:01;14.00;85.00
27072;DHT22;14613;46.308;25.288;2022-11-20T12:19:33;14.00;85.00
27072;DHT22;14613;46.308;25.288;2022-11-20T12:27:51;14.00;84.90
27072;DHT22;14613;46.308;25.288;2022-11-20T12:30:21;14.00;84.80
27072;DHT22;14613;46.308;25.288;2022-11-20T12:42:22;13.90;84.90
27072;DHT22;14613;46.308;25.288;2022-11-20T12:48:51;13.90;84.90
27072;DHT22;14613;46.308;25.288;2022-11-20T12:53:48;13.90;84.90
27072;DHT22;14613;46.308;25.288;2022-11-20T13:07:33;13.90;84.80
27072;DHT22;14613;46.308;25.288;2022-11-20T13:10:01;13.90;84.80
27072;DHT22;14613;46.308;25.288;2022-11-20T13:12:45;13.90;84.80
27072;DHT22;14613;46.308;25.288;2022-11-20T13:18:06;13.90;84.70
27072;DHT22;14613;46.308;25.288;2022-11-20T13:20:34;13.80;84.60
27072;DHT22;14613;46.308;25.288;2022-11-20T13:23:01;13.80;84.70
27072;DHT22;14613;46.308;25.288;2022-11-20T13:25:30;13.80;84.80
27072;DHT22;14613;46.308;25.288;2022-11-20T13:27:59;13.80;85.60
27072;DHT22;14613;46.308;25.288;2022-11-20T13:30:29;13.80;84.80
27072;DHT22;14613;46.308;25.288;2022-11-20T13:32:59;13.80;84.80
27072;DHT22;14613;46.308;25.288;2022-11-20T13:35:32;13.80;84.90
27072;DHT22;14613;46.308;25.288;2022-11-20T13:38:09;13.80;84.90
27072;DHT22;14613;46.308;25.288;2022-11-20T13:40:58;13.80;84.90
27072;DHT22;14613;46.308;25.288;2022-11-20T13:43:28;13.70;84.80
27072;DHT22;14613;46.308;25.288;2022-11-20T13:45:59;13.70;84.80
27072;DHT22;14613;46.308;25.288;2022-11-20T13:48:39;13.70;84.90
27072;DHT22;14613;46.308;25.288;2022-11-20T14:02:15;13.60;85.00
27072;DHT22;14613;46.308;25.288;2022-11-20T14:04:48;13.50;85.00
27072;DHT22;14613;46.308;25.288;2022-11-20T14:07:16;13.50;85.00
27072;DHT22;14613;46.308;25.288;2022-11-20T14:09:55;13.50;85.10
27072;DHT22;14613;46.308;25.288;2022-11-20T14:12:30;13.50;85.10
27072;DHT22;14613;46.308;25.288;2022-11-20T14:14:57;13.40;85.10
27072;DHT22;14613;46.308;25.288;2022-11-20T14:20:12;13.20;85.30
27072;DHT22;14613;46.308;25.288;2022-11-20T14:22:39;13.20;85.40
27072;DHT22;14613;46.308;25.288;2022-11-20T14:28:04;13.00;86.00
27072;DHT22;14613;46.308;25.288;2022-11-20T14:30:45;12.90;86.20
27072;DHT22;14613;46.308;25.288;2022-11-20T14:33:13;12.90;86.30
27072;DHT22;14613;46.308;25.288;2022-11-20T14:35:54;12.90;86.20
27072;DHT22;14613;46.308;25.288;2022-11-20T14:38:26;12.90;86.20
27072;DHT22;14613;46.308;25.288;2022-11-20T14:40:53;12.90;86.20
27072;DHT22;14613;46.308;25.288;2022-11-20T14:43:28;12.90;86.20
27072;DHT22;14613;46.308;25.288;2022-11-20T14:46:08;12.80;86.10
27072;DHT22;14613;46.308;25.288;2022-11-20T14:48:39;12.80;86.20
27072;DHT22;14613;46.308;25.288;2022-11-20T14:51:09;12.80;86.30
27072;DHT22;14613;46.308;25.288;2022-11-20T14:53:35;12.80;86.30
27072;DHT22;14613;46.308;25.288;2022-11-20T14:56:02;12.70;86.30
27072;DHT22;14613;46.308;25.288;2022-11-20T14:58:30;12.70;86.30
27072;DHT22;14613;46.308;25.288;2022-11-20T15:01:11;12.70;86.30
27072;DHT22;14613;46.308;25.288;2022-11-20T15:03:40;12.60;86.40
27072;DHT22;14613;46.308;25.288;2022-11-20T15:06:09;12.60;86.50
27072;DHT22;14613;46.308;25.288;2022-11-20T15:08:36;12.50;86.60
27072;DHT22;14613;46.308;25.288;2022-11-20T15:11:02;12.50;86.70
27072;DHT22;14613;46.308;25.288;2022-11-20T15:13:38;12.50;86.80
27072;DHT22;14613;46.308;25.288;2022-11-20T15:16:18;12.50;86.80
27072;DHT22;14613;46.308;25.288;2022-11-20T15:18:44;12.40;86.80
27072;DHT22;14613;46.308;25.288;2022-11-20T15:21:13;12.50;86.80
27072;DHT22;14613;46.308;25.288;2022-11-20T15:23:39;12.50;86.90
27072;DHT22;14613;46.308;25.288;2022-11-20T15:26:05;12.40;86.90
27072;DHT22;14613;46.308;25.288;2022-11-20T15:28:34;12.40;86.90
27072;DHT22;14613;46.308;25.288;2022-11-20T15:31:01;12.40;86.90
27072;DHT22;14613;46.308;25.288;2022-11-20T15:33:28;12.40;87.00
27072;DHT22;14613;46.308;25.288;2022-11-20T15:35:54;12.40;87.10
27072;DHT22;14613;46.308;25.288;2022-11-20T15:38:20;12.40;87.00
27072;DHT22;14613;46.308;25.288;2022-11-20T15:40:46;12.40;86.90
27072;DHT22;14613;46.308;25.288;2022-11-20T15:43:12;12.30;86.90
27072;DHT22;14613;46.308;25.288;2022-11-20T15:45:44;12.30;86.90
27072;DHT22;14613;46.308;25.288;2022-11-20T15:48:26;12.30;87.10
27072;DHT22;14613;46.308;25.288;2022-11-20T15:53:24;12.30;87.10
27072;DHT22;14613;46.308;25.288;2022-11-20T15:55:50;12.20;86.90
27072;DHT22;14613;46.308;25.288;2022-11-20T15:58:15;12.20;86.90
27072;DHT22;14613;46.308;25.288;2022-11-20T16:00:43;12.20;87.00
27072;DHT22;14613;46.308;25.288;2022-11-20T16:03:12;12.10;86.90
27072;DHT22;14613;46.308;25.288;2022-11-20T16:05:38;12.10;87.00
27072;DHT22;14613;46.308;25.288;2022-11-20T16:08:04;12.10;87.00
27072;DHT22;14613;46.308;25.288;2022-11-20T16:10:30;12.10;87.00
27072;DHT22;14613;46.308;25.288;2022-11-20T16:12:56;12.10;87.00
27072;DHT22;14613;46.308;25.288;2022-11-20T16:15:40;12.00;87.00
27072;DHT22;14613;46.308;25.288;2022-11-20T16:18:15;12.00;87.10
27072;DHT22;14613;46.308;25.288;2022-11-20T16:20:41;12.00;87.10
27072;DHT22;14613;46.308;25.288;2022-11-20T16:23:07;12.00;87.10
27072;DHT22;14613;46.308;25.288;2022-11-20T16:25:33;11.90;87.10
27072;DHT22;14613;46.308;25.288;2022-11-20T16:27:59;11.90;87.10
27072;DHT22;14613;46.308;25.288;2022-11-20T16:30:24;11.90;87.00
27072;DHT22;14613;46.308;25.288;2022-11-20T16:32:50;11.90;87.10
27072;DHT22;14613;46.308;25.288;2022-11-20T16:35:16;11.90;87.20
27072;DHT22;14613;46.308;25.288;2022-11-20T16:37:42;11.90;87.30
27072;DHT22;14613;46.308;25.288;2022-11-20T16:40:09;11.80;87.20
27072;DHT22;14613;46.308;25.288;2022-11-20T16:42:36;11.80;87.30
27072;DHT22;14613;46.308;25.288;2022-11-20T16:45:03;11.80;87.40
27072;DHT22;14613;46.308;25.288;2022-11-20T16:47:33;11.80;87.60
27072;DHT22;14613;46.308;25.288;2022-11-20T16:50:00;11.70;87.70
27072;DHT22;14613;46.308;25.288;2022-11-20T16:52:26;11.70;87.80
27072;DHT22;14613;46.308;25.288;2022-11-20T16:54:52;11.70;87.80
27072;DHT22;14613;46.308;25.288;2022-11-20T16:57:18;11.70;87.80
27072;DHT22;14613;46.308;25.288;2022-11-20T16:59:43;11.70;87.80
27072;DHT22;14613;46.308;25.288;2022-11-20T17:02:09;11.70;87.80
27072;DHT22;14613;46.308;25.288;2022-11-20T17:04:36;11.70;87.80
27072;DHT22;14613;46.308;25.288;2022-11-20T17:07:02;11.70;87.80
27072;DHT22;14613;46.308;25.288;2022-11-20T17:09:28;11.70;87.80
27072;DHT22;14613;46.308;25.288;2022-11-20T17:11:54;11.70;87.80
27072;DHT22;14613;46.308;25.288;2022-11-20T17:14:19;11.70;87.80
27072;DHT22;14613;46.308;25.288;2022-11-20T17:16:45;11.70;87.80